sensor_id;sensor_type;location;lat;lon;timestamp;P1;durP1;ratioP1;P2;durP2;ratioP2
42690;SDS011;28306;55.744;37.578;2022-07-23T00:00:32;2.00;;;1.00;;
42690;SDS011;28306;55.744;37.578;2022-07-23T00:02:58;1.55;;;0.85;;
42690;SDS011;28306;55.744;37.578;2022-07-23T00:05:24;1.42;;;0.85;;
42690;SDS011;28306;55.744;37.578;2022-07-23T00:07:50;1.95;;;1.10;;
42690;SDS011;28306;55.744;37.578;2022-07-23T00:10:15;1.17;;;0.75;;
42690;SDS011;28306;55.744;37.578;2022-07-23T00:12:41;1.83;;;0.95;;
42690;SDS011;28306;55.744;37.578;2022-07-23T00:15:07;1.55;;;0.88;;
42690;SDS011;28306;55.744;37.578;2022-07-23T00:17:35;1.75;;;1.17;;
42690;SDS011;28306;55.744;37.578;2022-07-23T00:20:01;1.63;;;0.95;;
42690;SDS011;28306;55.744;37.578;2022-07-23T00:22:28;1.38;;;0.80;;
42690;SDS011;28306;55.744;37.578;2022-07-23T00:24:54;1.65;;;1.02;;
42690;SDS011;28306;55.744;37.578;2022-07-23T00:27:20;1.95;;;0.90;;
42690;SDS011;28306;55.744;37.578;2022-07-23T00:29:46;1.42;;;0.95;;
42690;SDS011;28306;55.744;37.578;2022-07-23T00:32:12;1.50;;;0.95;;
42690;SDS011;28306;55.744;37.578;2022-07-23T00:34:37;1.35;;;0.90;;
42690;SDS011;28306;55.744;37.578;2022-07-23T00:37:03;1.73;;;1.00;;
42690;SDS011;28306;55.744;37.578;2022-07-23T00:39:29;1.60;;;1.00;;
42690;SDS011;28306;55.744;37.578;2022-07-23T00:41:55;1.52;;;1.00;;
42690;SDS011;28306;55.744;37.578;2022-07-23T00:44:24;1.40;;;0.80;;
42690;SDS011;28306;55.744;37.578;2022-07-23T00:46:58;1.88;;;0.90;;
42690;SDS011;28306;55.744;37.578;2022-07-23T00:49:26;3.47;;;0.90;;
42690;SDS011;28306;55.744;37.578;2022-07-23T00:51:53;2.75;;;1.35;;
42690;SDS011;28306;55.744;37.578;2022-07-23T00:54:21;1.83;;;1.02;;
42690;SDS011;28306;55.744;37.578;2022-07-23T00:56:48;2.15;;;1.10;;
42690;SDS011;28306;55.744;37.578;2022-07-23T00:59:14;1.27;;;0.90;;
42690;SDS011;28306;55.744;37.578;2022-07-23T01:01:39;3.13;;;1.00;;
42690;SDS011;28306;55.744;37.578;2022-07-23T01:04:06;1.65;;;1.00;;
42690;SDS011;28306;55.744;37.578;2022-07-23T01:06:36;2.25;;;1.05;;
42690;SDS011;28306;55.744;37.578;2022-07-23T01:09:03;2.35;;;1.20;;
42690;SDS011;28306;55.744;37.578;2022-07-23T01:11:31;1.50;;;1.00;;
42690;SDS011;28306;55.744;37.578;2022-07-23T01:13:59;1.58;;;0.80;;
42690;SDS011;28306;55.744;37.578;2022-07-23T01:16:24;1.67;;;1.00;;
42690;SDS011;28306;55.744;37.578;2022-07-23T01:18:50;1.65;;;1.00;;
42690;SDS011;28306;55.744;37.578;2022-07-23T01:21:16;1.67;;;1.08;;
42690;SDS011;28306;55.744;37.578;2022-07-23T01:23:43;1.77;;;0.90;;
42690;SDS011;28306;55.744;37.578;2022-07-23T01:26:09;2.75;;;1.20;;
42690;SDS011;28306;55.744;37.578;2022-07-23T01:28:35;2.05;;;0.90;;
42690;SDS011;28306;55.744;37.578;2022-07-23T01:31:01;1.73;;;0.93;;
42690;SDS011;28306;55.744;37.578;2022-07-23T01:33:32;1.92;;;1.23;;
42690;SDS011;28306;55.744;37.578;2022-07-23T01:35:57;1.50;;;0.90;;
42690;SDS011;28306;55.744;37.578;2022-07-23T01:38:24;3.30;;;1.05;;
42690;SDS011;28306;55.744;37.578;2022-07-23T01:40:50;1.50;;;0.90;;
42690;SDS011;28306;55.744;37.578;2022-07-23T01:43:15;1.70;;;0.95;;
42690;SDS011;28306;55.744;37.578;2022-07-23T01:45:41;1.30;;;0.85;;
42690;SDS011;28306;55.744;37.578;2022-07-23T01:48:09;2.13;;;1.05;;
42690;SDS011;28306;55.744;37.578;2022-07-23T01:50:35;3.08;;;1.02;;
42690;SDS011;28306;55.744;37.578;2022-07-23T01:53:11;2.47;;;1.10;;
42690;SDS011;28306;55.744;37.578;2022-07-23T01:55:37;1.70;;;1.10;;
42690;SDS011;28306;55.744;37.578;2022-07-23T01:58:03;1.40;;;1.00;;
42690;SDS011;28306;55.744;37.578;2022-07-23T02:00:29;1.80;;;1.10;;
42690;SDS011;28306;55.744;37.578;2022-07-23T02:02:55;1.63;;;1.10;;
42690;SDS011;28306;55.744;37.578;2022-07-23T02:05:21;1.27;;;0.90;;
42690;SDS011;28306;55.744;37.578;2022-07-23T02:07:47;2.85;;;1.13;;
42690;SDS011;28306;55.744;37.578;2022-07-23T02:10:12;2.20;;;1.13;;
42690;SDS011;28306;55.744;37.578;2022-07-23T02:12:38;1.83;;;1.00;;
42690;SDS011;28306;55.744;37.578;2022-07-23T02:15:04;2.03;;;0.93;;
42690;SDS011;28306;55.744;37.578;2022-07-23T02:17:30;1.60;;;1.00;;
42690;SDS011;28306;55.744;37.578;2022-07-23T02:19:55;1.88;;;1.10;;
42690;SDS011;28306;55.744;37.578;2022-07-23T02:22:21;1.90;;;1.08;;
42690;SDS011;28306;55.744;37.578;2022-07-23T02:24:48;2.53;;;1.05;;
42690;SDS011;28306;55.744;37.578;2022-07-23T02:27:14;3.92;;;1.00;;
42690;SDS011;28306;55.744;37.578;2022-07-23T02:29:40;3.65;;;1.38;;
42690;SDS011;28306;55.744;37.578;2022-07-23T02:32:06;2.05;;;1.20;;
42690;SDS011;28306;55.744;37.578;2022-07-23T02:34:31;1.85;;;1.13;;
42690;SDS011;28306;55.744;37.578;2022-07-23T02:36:57;4.40;;;1.13;;
42690;SDS011;28306;55.744;37.578;2022-07-23T02:39:24;1.80;;;1.10;;
42690;SDS011;28306;55.744;37.578;2022-07-23T02:41:49;1.60;;;1.08;;
42690;SDS011;28306;55.744;37.578;2022-07-23T02:44:15;1.75;;;1.00;;
42690;SDS011;28306;55.744;37.578;2022-07-23T02:46:44;2.08;;;1.02;;
42690;SDS011;28306;55.744;37.578;2022-07-23T02:49:10;1.83;;;1.10;;
42690;SDS011;28306;55.744;37.578;2022-07-23T02:51:35;2.80;;;1.13;;
42690;SDS011;28306;55.744;37.578;2022-07-23T02:54:04;3.63;;;1.23;;
42690;SDS011;28306;55.744;37.578;2022-07-23T02:56:30;2.33;;;1.30;;
42690;SDS011;28306;55.744;37.578;2022-07-23T02:58:56;3.13;;;1.00;;
42690;SDS011;28306;55.744;37.578;2022-07-23T03:01:22;1.70;;;1.02;;
42690;SDS011;28306;55.744;37.578;2022-07-23T03:03:47;1.60;;;1.00;;
42690;SDS011;28306;55.744;37.578;2022-07-23T03:06:13;1.55;;;1.15;;
42690;SDS011;28306;55.744;37.578;2022-07-23T03:08:39;2.10;;;1.20;;
42690;SDS011;28306;55.744;37.578;2022-07-23T03:11:05;2.22;;;1.17;;
42690;SDS011;28306;55.744;37.578;2022-07-23T03:13:37;2.15;;;1.00;;
42690;SDS011;28306;55.744;37.578;2022-07-23T03:16:04;1.67;;;1.00;;
42690;SDS011;28306;55.744;37.578;2022-07-23T03:18:30;1.63;;;1.02;;
42690;SDS011;28306;55.744;37.578;2022-07-23T03:20:56;5.88;;;1.42;;
42690;SDS011;28306;55.744;37.578;2022-07-23T03:23:21;2.72;;;1.00;;
42690;SDS011;28306;55.744;37.578;2022-07-23T03:25:47;2.50;;;1.17;;
42690;SDS011;28306;55.744;37.578;2022-07-23T03:28:14;2.10;;;1.30;;
42690;SDS011;28306;55.744;37.578;2022-07-23T03:30:45;2.88;;;1.10;;
42690;SDS011;28306;55.744;37.578;2022-07-23T03:33:12;2.65;;;1.13;;
42690;SDS011;28306;55.744;37.578;2022-07-23T03:35:38;1.88;;;1.10;;
42690;SDS011;28306;55.744;37.578;2022-07-23T03:38:19;1.63;;;1.05;;
42690;SDS011;28306;55.744;37.578;2022-07-23T03:40:45;1.77;;;1.02;;
42690;SDS011;28306;55.744;37.578;2022-07-23T03:43:11;2.10;;;1.10;;
42690;SDS011;28306;55.744;37.578;2022-07-23T03:45:37;1.98;;;1.30;;
42690;SDS011;28306;55.744;37.578;2022-07-23T03:48:03;2.47;;;1.30;;
42690;SDS011;28306;55.744;37.578;2022-07-23T03:50:29;2.10;;;0.98;;
42690;SDS011;28306;55.744;37.578;2022-07-23T03:52:55;1.90;;;1.17;;
42690;SDS011;28306;55.744;37.578;2022-07-23T03:55:20;2.03;;;1.00;;
42690;SDS011;28306;55.744;37.578;2022-07-23T03:57:46;2.10;;;1.20;;
42690;SDS011;28306;55.744;37.578;2022-07-23T04:00:12;2.83;;;1.25;;
42690;SDS011;28306;55.744;37.578;2022-07-23T04:02:43;1.88;;;1.20;;
42690;SDS011;28306;55.744;37.578;2022-07-23T04:05:10;1.83;;;1.00;;
42690;SDS011;28306;55.744;37.578;2022-07-23T04:07:38;2.08;;;1.27;;
42690;SDS011;28306;55.744;37.578;2022-07-23T04:10:05;3.13;;;1.23;;
42690;SDS011;28306;55.744;37.578;2022-07-23T04:12:31;1.85;;;1.25;;
42690;SDS011;28306;55.744;37.578;2022-07-23T04:14:56;2.70;;;1.23;;
42690;SDS011;28306;55.744;37.578;2022-07-23T04:17:22;2.83;;;1.33;;
42690;SDS011;28306;55.744;37.578;2022-07-23T04:19:47;3.65;;;1.20;;
42690;SDS011;28306;55.744;37.578;2022-07-23T04:22:17;2.33;;;1.33;;
42690;SDS011;28306;55.744;37.578;2022-07-23T04:24:42;2.15;;;1.42;;
42690;SDS011;28306;55.744;37.578;2022-07-23T04:27:08;2.15;;;1.50;;
42690;SDS011;28306;55.744;37.578;2022-07-23T04:29:34;2.25;;;1.30;;
42690;SDS011;28306;55.744;37.578;2022-07-23T04:32:00;1.60;;;1.08;;
42690;SDS011;28306;55.744;37.578;2022-07-23T04:34:26;2.55;;;1.70;;
42690;SDS011;28306;55.744;37.578;2022-07-23T04:36:53;1.63;;;1.00;;
42690;SDS011;28306;55.744;37.578;2022-07-23T04:39:19;2.30;;;1.23;;
42690;SDS011;28306;55.744;37.578;2022-07-23T04:41:45;2.42;;;1.33;;
42690;SDS011;28306;55.744;37.578;2022-07-23T04:44:11;1.98;;;1.10;;
42690;SDS011;28306;55.744;37.578;2022-07-23T04:46:37;1.60;;;1.02;;
42690;SDS011;28306;55.744;37.578;2022-07-23T04:49:05;3.75;;;1.60;;
42690;SDS011;28306;55.744;37.578;2022-07-23T04:51:31;1.85;;;1.00;;
42690;SDS011;28306;55.744;37.578;2022-07-23T04:53:57;2.40;;;1.10;;
42690;SDS011;28306;55.744;37.578;2022-07-23T04:56:22;1.60;;;1.08;;
42690;SDS011;28306;55.744;37.578;2022-07-23T04:58:48;2.08;;;1.25;;
42690;SDS011;28306;55.744;37.578;2022-07-23T05:01:15;2.33;;;1.35;;
42690;SDS011;28306;55.744;37.578;2022-07-23T05:03:41;1.88;;;1.30;;
42690;SDS011;28306;55.744;37.578;2022-07-23T05:06:07;1.60;;;1.08;;
42690;SDS011;28306;55.744;37.578;2022-07-23T05:08:32;3.10;;;1.30;;
42690;SDS011;28306;55.744;37.578;2022-07-23T05:10:59;3.17;;;1.40;;
42690;SDS011;28306;55.744;37.578;2022-07-23T05:13:24;1.85;;;1.20;;
42690;SDS011;28306;55.744;37.578;2022-07-23T05:15:51;2.35;;;1.20;;
42690;SDS011;28306;55.744;37.578;2022-07-23T05:18:17;2.10;;;1.38;;
42690;SDS011;28306;55.744;37.578;2022-07-23T05:20:43;2.30;;;1.50;;
42690;SDS011;28306;55.744;37.578;2022-07-23T05:23:12;2.25;;;1.45;;
42690;SDS011;28306;55.744;37.578;2022-07-23T05:25:39;5.15;;;1.70;;
42690;SDS011;28306;55.744;37.578;2022-07-23T05:28:05;2.38;;;1.42;;
42690;SDS011;28306;55.744;37.578;2022-07-23T05:30:31;3.10;;;1.50;;
42690;SDS011;28306;55.744;37.578;2022-07-23T05:33:00;2.10;;;1.50;;
42690;SDS011;28306;55.744;37.578;2022-07-23T05:35:26;4.25;;;1.55;;
42690;SDS011;28306;55.744;37.578;2022-07-23T05:38:11;4.20;;;1.77;;
42690;SDS011;28306;55.744;37.578;2022-07-23T05:40:38;2.83;;;1.35;;
42690;SDS011;28306;55.744;37.578;2022-07-23T05:43:04;2.67;;;1.50;;
42690;SDS011;28306;55.744;37.578;2022-07-23T05:45:29;2.25;;;1.50;;
42690;SDS011;28306;55.744;37.578;2022-07-23T05:47:56;1.90;;;1.25;;
42690;SDS011;28306;55.744;37.578;2022-07-23T05:50:27;3.30;;;1.63;;
42690;SDS011;28306;55.744;37.578;2022-07-23T05:52:59;2.05;;;1.27;;
42690;SDS011;28306;55.744;37.578;2022-07-23T05:55:48;2.30;;;1.40;;
42690;SDS011;28306;55.744;37.578;2022-07-23T05:58:14;2.40;;;1.45;;
42690;SDS011;28306;55.744;37.578;2022-07-23T06:00:39;4.13;;;1.20;;
42690;SDS011;28306;55.744;37.578;2022-07-23T06:03:05;2.47;;;1.40;;
42690;SDS011;28306;55.744;37.578;2022-07-23T06:05:32;2.17;;;1.40;;
42690;SDS011;28306;55.744;37.578;2022-07-23T06:07:57;4.13;;;1.52;;
42690;SDS011;28306;55.744;37.578;2022-07-23T06:10:24;1.63;;;1.20;;
42690;SDS011;28306;55.744;37.578;2022-07-23T06:12:50;1.98;;;1.40;;
42690;SDS011;28306;55.744;37.578;2022-07-23T06:15:16;2.00;;;1.35;;
42690;SDS011;28306;55.744;37.578;2022-07-23T06:17:41;2.47;;;1.90;;
42690;SDS011;28306;55.744;37.578;2022-07-23T06:20:07;3.47;;;1.55;;
42690;SDS011;28306;55.744;37.578;2022-07-23T06:22:37;2.10;;;1.50;;
42690;SDS011;28306;55.744;37.578;2022-07-23T06:25:02;2.53;;;1.75;;
42690;SDS011;28306;55.744;37.578;2022-07-23T06:27:28;2.47;;;1.73;;
42690;SDS011;28306;55.744;37.578;2022-07-23T06:29:54;1.95;;;1.40;;
42690;SDS011;28306;55.744;37.578;2022-07-23T06:32:20;2.88;;;1.67;;
42690;SDS011;28306;55.744;37.578;2022-07-23T06:34:45;2.55;;;1.60;;
42690;SDS011;28306;55.744;37.578;2022-07-23T06:37:11;2.83;;;1.63;;
42690;SDS011;28306;55.744;37.578;2022-07-23T06:39:37;3.97;;;1.77;;
42690;SDS011;28306;55.744;37.578;2022-07-23T06:42:02;2.85;;;1.60;;
42690;SDS011;28306;55.744;37.578;2022-07-23T06:44:37;3.47;;;1.98;;
42690;SDS011;28306;55.744;37.578;2022-07-23T06:47:05;3.00;;;1.70;;
42690;SDS011;28306;55.744;37.578;2022-07-23T06:49:30;2.83;;;1.70;;
42690;SDS011;28306;55.744;37.578;2022-07-23T06:51:56;2.45;;;1.65;;
42690;SDS011;28306;55.744;37.578;2022-07-23T06:54:22;3.65;;;2.28;;
42690;SDS011;28306;55.744;37.578;2022-07-23T06:56:48;2.63;;;1.70;;
42690;SDS011;28306;55.744;37.578;2022-07-23T06:59:14;2.47;;;1.85;;
42690;SDS011;28306;55.744;37.578;2022-07-23T07:01:41;2.78;;;1.70;;
42690;SDS011;28306;55.744;37.578;2022-07-23T07:04:07;2.65;;;1.40;;
42690;SDS011;28306;55.744;37.578;2022-07-23T07:06:32;2.50;;;1.73;;
42690;SDS011;28306;55.744;37.578;2022-07-23T07:08:58;2.85;;;1.80;;
42690;SDS011;28306;55.744;37.578;2022-07-23T07:11:24;2.30;;;1.40;;
42690;SDS011;28306;55.744;37.578;2022-07-23T07:13:50;2.63;;;1.77;;
42690;SDS011;28306;55.744;37.578;2022-07-23T07:16:16;2.67;;;1.73;;
42690;SDS011;28306;55.744;37.578;2022-07-23T07:18:42;2.55;;;1.70;;
42690;SDS011;28306;55.744;37.578;2022-07-23T07:21:08;2.45;;;1.40;;
42690;SDS011;28306;55.744;37.578;2022-07-23T07:23:33;2.60;;;1.70;;
42690;SDS011;28306;55.744;37.578;2022-07-23T07:25:59;2.92;;;1.80;;
42690;SDS011;28306;55.744;37.578;2022-07-23T07:28:24;4.13;;;2.17;;
42690;SDS011;28306;55.744;37.578;2022-07-23T07:30:50;2.97;;;2.20;;
42690;SDS011;28306;55.744;37.578;2022-07-23T07:33:16;5.05;;;2.05;;
42690;SDS011;28306;55.744;37.578;2022-07-23T07:35:41;3.88;;;1.95;;
42690;SDS011;28306;55.744;37.578;2022-07-23T07:38:07;5.88;;;2.03;;
42690;SDS011;28306;55.744;37.578;2022-07-23T07:40:32;2.20;;;1.65;;
42690;SDS011;28306;55.744;37.578;2022-07-23T07:42:58;3.08;;;1.70;;
42690;SDS011;28306;55.744;37.578;2022-07-23T07:45:24;2.85;;;2.10;;
42690;SDS011;28306;55.744;37.578;2022-07-23T07:47:51;5.00;;;1.80;;
42690;SDS011;28306;55.744;37.578;2022-07-23T07:50:20;2.38;;;1.60;;
42690;SDS011;28306;55.744;37.578;2022-07-23T07:52:46;3.97;;;2.03;;
42690;SDS011;28306;55.744;37.578;2022-07-23T07:55:12;3.22;;;1.80;;
42690;SDS011;28306;55.744;37.578;2022-07-23T07:57:38;2.38;;;1.83;;
42690;SDS011;28306;55.744;37.578;2022-07-23T08:00:05;2.40;;;1.67;;
42690;SDS011;28306;55.744;37.578;2022-07-23T08:02:45;2.95;;;2.00;;
42690;SDS011;28306;55.744;37.578;2022-07-23T08:05:19;3.92;;;2.05;;
42690;SDS011;28306;55.744;37.578;2022-07-23T08:07:49;4.43;;;2.05;;
42690;SDS011;28306;55.744;37.578;2022-07-23T08:10:15;2.83;;;2.03;;
42690;SDS011;28306;55.744;37.578;2022-07-23T08:12:42;3.08;;;2.08;;
42690;SDS011;28306;55.744;37.578;2022-07-23T08:15:10;4.07;;;1.83;;
42690;SDS011;28306;55.744;37.578;2022-07-23T08:17:37;5.72;;;2.30;;
42690;SDS011;28306;55.744;37.578;2022-07-23T08:20:03;3.63;;;2.30;;
42690;SDS011;28306;55.744;37.578;2022-07-23T08:25:23;3.58;;;2.13;;
42690;SDS011;28306;55.744;37.578;2022-07-23T08:27:51;3.03;;;1.87;;
42690;SDS011;28306;55.744;37.578;2022-07-23T08:30:17;4.07;;;2.38;;
42690;SDS011;28306;55.744;37.578;2022-07-23T08:32:50;2.72;;;2.08;;
42690;SDS011;28306;55.744;37.578;2022-07-23T08:35:33;3.50;;;2.10;;
42690;SDS011;28306;55.744;37.578;2022-07-23T08:38:04;3.25;;;2.15;;
42690;SDS011;28306;55.744;37.578;2022-07-23T08:40:33;3.40;;;2.25;;
42690;SDS011;28306;55.744;37.578;2022-07-23T08:43:00;3.28;;;2.20;;
42690;SDS011;28306;55.744;37.578;2022-07-23T08:45:31;3.63;;;2.25;;
42690;SDS011;28306;55.744;37.578;2022-07-23T08:48:01;2.80;;;2.15;;
42690;SDS011;28306;55.744;37.578;2022-07-23T08:50:28;4.13;;;2.25;;
42690;SDS011;28306;55.744;37.578;2022-07-23T08:52:54;4.35;;;2.30;;
42690;SDS011;28306;55.744;37.578;2022-07-23T08:55:22;3.28;;;2.00;;
42690;SDS011;28306;55.744;37.578;2022-07-23T08:57:49;3.92;;;2.22;;
42690;SDS011;28306;55.744;37.578;2022-07-23T09:00:16;3.38;;;2.20;;
42690;SDS011;28306;55.744;37.578;2022-07-23T09:02:43;3.35;;;2.17;;
42690;SDS011;28306;55.744;37.578;2022-07-23T09:05:10;2.45;;;2.15;;
42690;SDS011;28306;55.744;37.578;2022-07-23T09:07:37;3.03;;;2.17;;
42690;SDS011;28306;55.744;37.578;2022-07-23T09:10:23;3.95;;;2.28;;
42690;SDS011;28306;55.744;37.578;2022-07-23T09:12:49;3.35;;;2.10;;
42690;SDS011;28306;55.744;37.578;2022-07-23T09:15:15;2.97;;;2.00;;
42690;SDS011;28306;55.744;37.578;2022-07-23T09:17:41;3.97;;;2.35;;
42690;SDS011;28306;55.744;37.578;2022-07-23T09:20:08;3.53;;;1.92;;
42690;SDS011;28306;55.744;37.578;2022-07-23T09:22:34;3.85;;;2.28;;
42690;SDS011;28306;55.744;37.578;2022-07-23T09:30:15;3.20;;;2.40;;
42690;SDS011;28306;55.744;37.578;2022-07-23T09:32:41;3.47;;;2.78;;
42690;SDS011;28306;55.744;37.578;2022-07-23T09:35:07;3.88;;;2.20;;
42690;SDS011;28306;55.744;37.578;2022-07-23T09:37:33;4.07;;;2.15;;
42690;SDS011;28306;55.744;37.578;2022-07-23T09:40:06;4.97;;;2.38;;
42690;SDS011;28306;55.744;37.578;2022-07-23T09:42:34;3.15;;;2.28;;
42690;SDS011;28306;55.744;37.578;2022-07-23T09:45:00;4.03;;;2.35;;
42690;SDS011;28306;55.744;37.578;2022-07-23T09:47:27;4.47;;;2.10;;
42690;SDS011;28306;55.744;37.578;2022-07-23T09:52:26;5.10;;;2.05;;
42690;SDS011;28306;55.744;37.578;2022-07-23T09:54:59;3.55;;;2.30;;
42690;SDS011;28306;55.744;37.578;2022-07-23T09:57:26;3.58;;;2.38;;
42690;SDS011;28306;55.744;37.578;2022-07-23T09:59:52;3.15;;;2.40;;
42690;SDS011;28306;55.744;37.578;2022-07-23T10:02:18;4.75;;;2.63;;
42690;SDS011;28306;55.744;37.578;2022-07-23T10:05:05;2.80;;;2.30;;
42690;SDS011;28306;55.744;37.578;2022-07-23T10:07:50;4.43;;;2.60;;
42690;SDS011;28306;55.744;37.578;2022-07-23T10:10:34;5.65;;;3.30;;
42690;SDS011;28306;55.744;37.578;2022-07-23T10:13:39;4.82;;;2.50;;
42690;SDS011;28306;55.744;37.578;2022-07-23T10:16:14;4.15;;;2.55;;
42690;SDS011;28306;55.744;37.578;2022-07-23T10:18:40;5.88;;;2.50;;
42690;SDS011;28306;55.744;37.578;2022-07-23T10:21:07;5.78;;;2.65;;
42690;SDS011;28306;55.744;37.578;2022-07-23T10:23:45;3.47;;;2.63;;
42690;SDS011;28306;55.744;37.578;2022-07-23T10:26:41;4.15;;;3.00;;
42690;SDS011;28306;55.744;37.578;2022-07-23T10:32:26;6.28;;;2.60;;
42690;SDS011;28306;55.744;37.578;2022-07-23T10:37:45;5.10;;;2.63;;
42690;SDS011;28306;55.744;37.578;2022-07-23T10:40:16;3.15;;;2.30;;
42690;SDS011;28306;55.744;37.578;2022-07-23T10:42:44;5.25;;;3.05;;
42690;SDS011;28306;55.744;37.578;2022-07-23T10:45:24;3.38;;;2.38;;
42690;SDS011;28306;55.744;37.578;2022-07-23T10:47:55;3.38;;;2.53;;
42690;SDS011;28306;55.744;37.578;2022-07-23T10:50:36;5.18;;;2.92;;
42690;SDS011;28306;55.744;37.578;2022-07-23T10:58:00;4.20;;;2.70;;
42690;SDS011;28306;55.744;37.578;2022-07-23T11:00:28;4.43;;;2.55;;
42690;SDS011;28306;55.744;37.578;2022-07-23T11:02:55;3.83;;;2.47;;
42690;SDS011;28306;55.744;37.578;2022-07-23T11:05:26;3.70;;;2.50;;
42690;SDS011;28306;55.744;37.578;2022-07-23T11:08:13;5.47;;;2.95;;
42690;SDS011;28306;55.744;37.578;2022-07-23T11:13:37;3.67;;;2.58;;
42690;SDS011;28306;55.744;37.578;2022-07-23T11:16:15;4.18;;;2.83;;
42690;SDS011;28306;55.744;37.578;2022-07-23T11:26:47;6.30;;;3.17;;
42690;SDS011;28306;55.744;37.578;2022-07-23T11:34:32;5.65;;;2.90;;
42690;SDS011;28306;55.744;37.578;2022-07-23T11:37:09;5.03;;;2.78;;
42690;SDS011;28306;55.744;37.578;2022-07-23T11:39:37;10.38;;;2.85;;
42690;SDS011;28306;55.744;37.578;2022-07-23T11:42:05;6.20;;;2.85;;
42690;SDS011;28306;55.744;37.578;2022-07-23T11:44:32;7.40;;;3.42;;
42690;SDS011;28306;55.744;37.578;2022-07-23T11:47:01;5.15;;;3.10;;
42690;SDS011;28306;55.744;37.578;2022-07-23T11:49:29;4.13;;;3.08;;
42690;SDS011;28306;55.744;37.578;2022-07-23T11:54:36;7.47;;;3.47;;
42690;SDS011;28306;55.744;37.578;2022-07-23T11:57:11;4.80;;;2.97;;
42690;SDS011;28306;55.744;37.578;2022-07-23T11:59:37;4.00;;;2.67;;
42690;SDS011;28306;55.744;37.578;2022-07-23T12:02:05;4.28;;;2.95;;
42690;SDS011;28306;55.744;37.578;2022-07-23T12:04:45;3.78;;;2.70;;
42690;SDS011;28306;55.744;37.578;2022-07-23T12:10:01;4.55;;;3.03;;
42690;SDS011;28306;55.744;37.578;2022-07-23T12:12:45;4.57;;;3.15;;
42690;SDS011;28306;55.744;37.578;2022-07-23T12:15:12;3.20;;;2.60;;
42690;SDS011;28306;55.744;37.578;2022-07-23T12:17:39;5.35;;;3.22;;
42690;SDS011;28306;55.744;37.578;2022-07-23T12:20:07;6.32;;;3.00;;
42690;SDS011;28306;55.744;37.578;2022-07-23T12:22:36;4.70;;;3.10;;
42690;SDS011;28306;55.744;37.578;2022-07-23T12:25:08;4.47;;;3.20;;
42690;SDS011;28306;55.744;37.578;2022-07-23T12:27:37;5.63;;;3.00;;
42690;SDS011;28306;55.744;37.578;2022-07-23T12:30:23;4.35;;;2.90;;
42690;SDS011;28306;55.744;37.578;2022-07-23T12:32:52;5.53;;;2.97;;
42690;SDS011;28306;55.744;37.578;2022-07-23T12:35:20;8.98;;;3.70;;
42690;SDS011;28306;55.744;37.578;2022-07-23T12:37:46;9.38;;;3.42;;
42690;SDS011;28306;55.744;37.578;2022-07-23T12:43:06;8.77;;;3.95;;
42690;SDS011;28306;55.744;37.578;2022-07-23T12:48:50;4.35;;;3.65;;
42690;SDS011;28306;55.744;37.578;2022-07-23T12:51:17;4.07;;;3.20;;
42690;SDS011;28306;55.744;37.578;2022-07-23T12:53:46;6.90;;;3.78;;
42690;SDS011;28306;55.744;37.578;2022-07-23T13:06:26;6.43;;;3.95;;
42690;SDS011;28306;55.744;37.578;2022-07-23T13:08:56;4.25;;;3.38;;
42690;SDS011;28306;55.744;37.578;2022-07-23T13:11:21;4.97;;;3.50;;
42690;SDS011;28306;55.744;37.578;2022-07-23T13:13:47;4.07;;;3.28;;
42690;SDS011;28306;55.744;37.578;2022-07-23T13:16:13;5.68;;;3.92;;
42690;SDS011;28306;55.744;37.578;2022-07-23T13:18:39;7.28;;;3.40;;
42690;SDS011;28306;55.744;37.578;2022-07-23T13:21:04;4.90;;;3.17;;
42690;SDS011;28306;55.744;37.578;2022-07-23T13:23:30;5.95;;;3.90;;
42690;SDS011;28306;55.744;37.578;2022-07-23T13:25:56;5.65;;;3.25;;
42690;SDS011;28306;55.744;37.578;2022-07-23T13:28:22;5.25;;;3.40;;
42690;SDS011;28306;55.744;37.578;2022-07-23T13:30:49;5.15;;;3.97;;
42690;SDS011;28306;55.744;37.578;2022-07-23T13:33:16;4.55;;;3.80;;
42690;SDS011;28306;55.744;37.578;2022-07-23T13:35:45;7.30;;;3.97;;
42690;SDS011;28306;55.744;37.578;2022-07-23T13:38:12;5.65;;;4.03;;
42690;SDS011;28306;55.744;37.578;2022-07-23T13:40:39;6.68;;;3.88;;
42690;SDS011;28306;55.744;37.578;2022-07-23T13:43:11;4.93;;;3.75;;
42690;SDS011;28306;55.744;37.578;2022-07-23T13:45:39;4.47;;;3.95;;
42690;SDS011;28306;55.744;37.578;2022-07-23T13:48:08;7.68;;;4.32;;
42690;SDS011;28306;55.744;37.578;2022-07-23T13:50:34;5.22;;;4.07;;
42690;SDS011;28306;55.744;37.578;2022-07-23T13:53:04;4.70;;;3.72;;
42690;SDS011;28306;55.744;37.578;2022-07-23T13:55:32;7.18;;;4.18;;
42690;SDS011;28306;55.744;37.578;2022-07-23T13:57:58;5.57;;;3.67;;
42690;SDS011;28306;55.744;37.578;2022-07-23T14:00:24;5.43;;;3.80;;
42690;SDS011;28306;55.744;37.578;2022-07-23T14:02:50;5.15;;;3.95;;
42690;SDS011;28306;55.744;37.578;2022-07-23T14:05:16;4.57;;;3.72;;
42690;SDS011;28306;55.744;37.578;2022-07-23T14:07:42;5.85;;;4.00;;
42690;SDS011;28306;55.744;37.578;2022-07-23T14:10:09;5.25;;;3.88;;
42690;SDS011;28306;55.744;37.578;2022-07-23T14:12:36;4.85;;;3.58;;
42690;SDS011;28306;55.744;37.578;2022-07-23T14:15:03;5.18;;;4.03;;
42690;SDS011;28306;55.744;37.578;2022-07-23T14:17:30;10.10;;;4.18;;
42690;SDS011;28306;55.744;37.578;2022-07-23T14:19:56;5.95;;;3.92;;
42690;SDS011;28306;55.744;37.578;2022-07-23T14:22:22;4.82;;;4.07;;
42690;SDS011;28306;55.744;37.578;2022-07-23T14:24:48;4.68;;;4.10;;
42690;SDS011;28306;55.744;37.578;2022-07-23T14:27:14;6.68;;;4.10;;
42690;SDS011;28306;55.744;37.578;2022-07-23T14:29:40;6.13;;;3.72;;
42690;SDS011;28306;55.744;37.578;2022-07-23T14:32:06;7.00;;;4.60;;
42690;SDS011;28306;55.744;37.578;2022-07-23T14:34:32;5.78;;;4.53;;
42690;SDS011;28306;55.744;37.578;2022-07-23T14:36:58;4.88;;;3.92;;
42690;SDS011;28306;55.744;37.578;2022-07-23T14:39:24;6.30;;;3.90;;
42690;SDS011;28306;55.744;37.578;2022-07-23T14:41:50;5.97;;;4.38;;
42690;SDS011;28306;55.744;37.578;2022-07-23T14:44:16;5.22;;;4.13;;
42690;SDS011;28306;55.744;37.578;2022-07-23T14:46:42;5.50;;;4.45;;
42690;SDS011;28306;55.744;37.578;2022-07-23T14:49:08;5.93;;;4.35;;
42690;SDS011;28306;55.744;37.578;2022-07-23T14:51:33;5.10;;;4.03;;
42690;SDS011;28306;55.744;37.578;2022-07-23T14:53:59;8.10;;;4.68;;
42690;SDS011;28306;55.744;37.578;2022-07-23T14:56:25;4.70;;;3.83;;
42690;SDS011;28306;55.744;37.578;2022-07-23T14:58:50;5.40;;;4.30;;
42690;SDS011;28306;55.744;37.578;2022-07-23T15:01:16;4.75;;;4.00;;
42690;SDS011;28306;55.744;37.578;2022-07-23T15:03:41;5.47;;;4.70;;
42690;SDS011;28306;55.744;37.578;2022-07-23T15:06:07;4.93;;;3.90;;
42690;SDS011;28306;55.744;37.578;2022-07-23T15:08:33;5.47;;;4.25;;
42690;SDS011;28306;55.744;37.578;2022-07-23T15:10:59;5.85;;;4.35;;
42690;SDS011;28306;55.744;37.578;2022-07-23T15:13:24;5.00;;;4.50;;
42690;SDS011;28306;55.744;37.578;2022-07-23T15:15:50;5.85;;;3.80;;
42690;SDS011;28306;55.744;37.578;2022-07-23T15:18:15;5.20;;;4.15;;
42690;SDS011;28306;55.744;37.578;2022-07-23T15:20:41;4.88;;;4.05;;
42690;SDS011;28306;55.744;37.578;2022-07-23T15:23:07;5.45;;;4.38;;
42690;SDS011;28306;55.744;37.578;2022-07-23T15:25:33;4.68;;;4.05;;
42690;SDS011;28306;55.744;37.578;2022-07-23T15:27:58;4.70;;;4.03;;
42690;SDS011;28306;55.744;37.578;2022-07-23T15:30:24;6.25;;;4.50;;
42690;SDS011;28306;55.744;37.578;2022-07-23T15:32:50;6.53;;;4.20;;
42690;SDS011;28306;55.744;37.578;2022-07-23T15:35:16;4.65;;;4.10;;